Time;durP1;ratioP1;P1;durP2;ratioP2;P2;SDS_P1;SDS_P2;PMS_P1;PMS_P2;Temp;Humidity;BMP_temperature;BMP_pressure;BME280_temperature;BME280_humidity;BME280_pressure;Samples;Min_cycle;Max_cycle;Signal;HPM_P1;HPM_P2
2023/08/07 00:01:58;;;;;;;11.70;5.80;;;24.70;80.90;;;;;;5066800;28;20025;-90
2023/08/07 00:04:23;;;;;;;6.88;6.15;;;24.70;81.00;;;;;;5055901;28;20017;-89
2023/08/07 00:06:50;;;;;;;13.40;6.50;;;24.60;81.50;;;;;;5061223;28;20104;-90
2023/08/07 00:09:16;;;;;;;7.22;6.25;;;24.60;81.00;;;;;;5050422;28;20386;-91
2023/08/07 00:11:42;;;;;;;10.88;6.43;;;24.60;81.10;;;;;;5045176;28;20052;-91
2023/08/07 00:14:08;;;;;;;10.52;6.97;;;24.60;81.40;;;;;;5057185;28;20041;-89
2023/08/07 00:16:33;;;;;;;7.97;7.18;;;24.50;81.60;;;;;;5069447;28;20012;-89
2023/08/07 00:18:59;;;;;;;8.73;6.78;;;24.50;81.90;;;;;;5063706;28;20031;-89
2023/08/07 00:21:25;;;;;;;8.35;7.03;;;24.50;82.10;;;;;;5050972;28;20024;-88
2023/08/07 00:23:51;;;;;;;9.52;6.50;;;24.50;82.60;;;;;;5094671;28;20033;-89
2023/08/07 00:26:17;;;;;;;12.52;6.97;;;24.40;82.70;;;;;;5066577;28;20089;-88
2023/08/07 00:28:43;;;;;;;10.48;7.28;;;24.40;82.70;;;;;;5063679;28;20040;-89
2023/08/07 00:31:09;;;;;;;10.00;6.68;;;24.30;82.80;;;;;;5074823;28;20009;-87
2023/08/07 00:33:35;;;;;;;10.38;6.85;;;24.30;83.00;;;;;;5092310;28;20014;-89
2023/08/07 00:36:01;;;;;;;13.55;6.68;;;24.30;82.90;;;;;;5082117;28;20044;-89
2023/08/07 00:38:27;;;;;;;12.82;7.72;;;24.30;83.00;;;;;;5099329;28;20048;-90
2023/08/07 00:40:53;;;;;;;11.45;6.50;;;24.30;82.90;;;;;;5117576;28;20020;-89
2023/08/07 00:43:19;;;;;;;7.50;6.50;;;24.20;82.80;;;;;;5102298;28;20016;-90
2023/08/07 00:45:47;;;;;;;8.85;6.60;;;24.30;82.90;;;;;;5079710;28;20031;-90
2023/08/07 00:48:16;;;;;;;8.75;6.15;;;24.20;83.00;;;;;;5068059;28;20093;-89
2023/08/07 00:50:42;;;;;;;9.88;6.57;;;24.20;83.00;;;;;;5088572;28;20009;-90
2023/08/07 00:53:10;;;;;;;11.40;6.43;;;24.20;83.30;;;;;;5072962;28;20066;-89
2023/08/07 00:55:36;;;;;;;8.48;5.97;;;24.20;82.90;;;;;;5081701;28;20042;-90
2023/08/07 00:58:02;;;;;;;9.05;6.57;;;24.20;82.70;;;;;;5095626;28;20015;-89
2023/08/07 01:00:30;;;;;;;8.48;6.05;;;24.20;82.90;;;;;;5092232;28;20016;-90
2023/08/07 01:02:56;;;;;;;13.75;6.13;;;24.20;82.80;;;;;;5061841;28;20025;-89
2023/08/07 01:05:24;;;;;;;9.35;6.18;;;24.20;82.80;;;;;;5052507;28;20036;-90
2023/08/07 01:07:54;;;;;;;10.05;6.15;;;24.20;82.90;;;;;;5069814;28;20028;-89
2023/08/07 01:10:39;;;;;;;9.60;6.40;;;24.20;82.70;;;;;;5054148;28;20553;-88
2023/08/07 01:13:33;;;;;;;9.07;5.75;;;24.10;82.70;;;;;;5076498;28;20067;-86
2023/08/07 01:16:07;;;;;;;13.50;5.78;;;24.10;82.60;;;;;;5070353;28;20184;-88
2023/08/07 01:18:35;;;;;;;7.05;6.35;;;24.10;82.80;;;;;;5080013;28;20096;-88
2023/08/07 01:21:02;;;;;;;9.68;6.57;;;24.00;82.60;;;;;;5083056;28;20371;-88
2023/08/07 01:23:28;;;;;;;9.35;6.05;;;24.00;82.90;;;;;;5057751;28;20036;-89
2023/08/07 01:25:54;;;;;;;8.35;6.20;;;24.00;83.00;;;;;;5066145;28;20137;-90
2023/08/07 01:28:32;;;;;;;10.98;6.00;;;24.00;83.00;;;;;;5056706;28;20021;-89
2023/08/07 01:31:03;;;;;;;9.82;6.13;;;24.00;83.20;;;;;;5060240;28;20023;-89
2023/08/07 01:33:51;;;;;;;9.68;6.50;;;24.00;83.10;;;;;;5062401;28;20052;-89
2023/08/07 01:36:17;;;;;;;9.75;6.13;;;24.00;83.10;;;;;;5054015;28;20021;-90
2023/08/07 01:38:44;;;;;;;7.38;6.15;;;23.90;83.30;;;;;;5064458;28;20105;-89
2023/08/07 01:41:09;;;;;;;8.68;5.97;;;23.90;83.30;;;;;;5076322;28;20474;-88
2023/08/07 01:43:35;;;;;;;13.80;6.18;;;23.90;83.30;;;;;;5067279;28;20108;-88
2023/08/07 01:46:02;;;;;;;8.38;6.40;;;23.90;83.60;;;;;;5089220;28;20048;-88
2023/08/07 01:48:28;;;;;;;8.73;5.97;;;23.80;83.70;;;;;;5073434;28;20085;-90
2023/08/07 01:50:55;;;;;;;9.43;5.75;;;23.80;84.00;;;;;;5064770;28;20028;-89
2023/08/07 01:53:21;;;;;;;11.38;6.15;;;23.80;84.10;;;;;;5065408;28;20032;-91
2023/08/07 01:55:47;;;;;;;9.15;6.00;;;23.80;84.00;;;;;;5054193;28;20029;-90
2023/08/07 01:58:12;;;;;;;12.27;6.35;;;23.70;84.10;;;;;;5046968;28;20025;-90
2023/08/07 02:00:38;;;;;;;8.65;6.57;;;23.70;84.20;;;;;;5057671;28;20027;-90
2023/08/07 02:03:04;;;;;;;7.63;5.85;;;23.70;84.70;;;;;;5070330;28;20478;-89
2023/08/07 02:05:30;;;;;;;6.78;6.07;;;23.70;84.60;;;;;;5062658;28;20030;-91
2023/08/07 02:07:56;;;;;;;9.27;5.88;;;23.70;85.00;;;;;;5072185;28;20111;-90
2023/08/07 02:10:22;;;;;;;8.20;6.15;;;23.70;85.20;;;;;;5053067;28;20036;-91
2023/08/07 02:12:50;;;;;;;8.43;6.65;;;23.70;85.50;;;;;;5060014;28;20033;-90
2023/08/07 02:15:16;;;;;;;;;;;23.60;85.30;;;;;;5053664;28;20059;-91
2023/08/07 02:17:42;;;;;;;8.95;6.45;;;23.70;84.70;;;;;;5071544;28;19908;-90
2023/08/07 02:20:09;;;;;;;8.95;6.72;;;23.60;85.20;;;;;;5054059;28;20040;-85
2023/08/07 02:22:35;;;;;;;6.93;6.10;;;23.70;85.50;;;;;;5058235;28;20035;-91
2023/08/07 02:25:01;;;;;;;10.35;6.63;;;23.60;85.60;;;;;;5076266;28;20016;-90
2023/08/07 02:27:26;;;;;;;11.13;5.68;;;23.70;85.60;;;;;;5061281;28;20033;-92
2023/08/07 02:29:52;;;;;;;12.02;6.25;;;23.70;85.80;;;;;;5052658;28;20056;-89
2023/08/07 02:32:18;;;;;;;8.25;6.07;;;23.70;85.20;;;;;;5077058;28;20382;-92
2023/08/07 02:34:45;;;;;;;9.13;5.90;;;23.80;85.00;;;;;;5071024;28;20025;-90
2023/08/07 02:37:11;;;;;;;12.80;6.32;;;23.80;84.50;;;;;;5062318;28;20032;-89
2023/08/07 02:39:37;;;;;;;7.40;5.97;;;23.90;84.30;;;;;;5090347;28;20100;-89
2023/08/07 02:42:03;;;;;;;11.57;6.30;;;23.90;84.20;;;;;;5088275;28;20032;-90
2023/08/07 02:44:28;;;;;;;9.95;5.97;;;24.00;84.30;;;;;;5061886;28;20032;-88
2023/08/07 02:46:54;;;;;;;6.50;5.90;;;24.00;84.20;;;;;;5078743;28;20122;-88
2023/08/07 02:49:20;;;;;;;10.48;6.20;;;24.10;83.60;;;;;;5081686;28;20085;-90
2023/08/07 02:51:46;;;;;;;8.32;6.03;;;24.20;83.30;;;;;;5074454;28;20021;-89
2023/08/07 02:54:12;;;;;;;9.45;6.30;;;24.30;83.30;;;;;;5070900;28;20059;-89
2023/08/07 02:56:38;;;;;;;8.82;6.05;;;24.30;82.90;;;;;;5056113;28;20516;-88
2023/08/07 02:59:04;;;;;;;10.98;6.22;;;24.40;82.30;;;;;;5077151;28;20096;-89
2023/08/07 03:01:30;;;;;;;10.38;6.18;;;24.40;82.40;;;;;;5076854;28;20056;-90
2023/08/07 03:03:56;;;;;;;7.30;6.20;;;24.50;82.20;;;;;;5075900;28;20474;-88
2023/08/07 03:06:22;;;;;;;6.78;6.07;;;24.50;82.20;;;;;;5080929;28;20021;-87
2023/08/07 03:08:47;;;;;;;7.70;5.78;;;24.50;81.80;;;;;;5079714;28;20021;-90
2023/08/07 03:11:13;;;;;;;6.07;5.43;;;24.60;81.50;;;;;;5066123;28;20041;-88
2023/08/07 03:13:39;;;;;;;9.63;6.00;;;24.60;81.40;;;;;;5060845;28;20056;-88
2023/08/07 03:16:07;;;;;;;9.07;5.95;;;24.60;81.10;;;;;;5064894;28;20021;-90
2023/08/07 03:18:33;;;;;;;10.63;6.15;;;24.70;81.00;;;;;;5061912;28;20028;-89
2023/08/07 03:20:59;;;;;;;10.80;6.10;;;24.80;80.70;;;;;;5067792;28;20017;-90
2023/08/07 03:23:26;;;;;;;10.52;5.90;;;24.80;80.80;;;;;;5051634;28;20021;-89
2023/08/07 03:26:05;;;;;;;10.93;5.68;;;24.80;80.30;;;;;;5056826;28;20115;-88
2023/08/07 03:28:31;;;;;;;11.52;5.97;;;24.90;80.20;;;;;;5074381;28;20366;-90
2023/08/07 03:30:57;;;;;;;8.43;5.90;;;24.90;80.00;;;;;;5083160;28;20017;-90
2023/08/07 03:33:23;;;;;;;9.23;5.65;;;25.00;79.60;;;;;;5057650;28;20510;-89
2023/08/07 03:35:49;;;;;;;8.32;5.25;;;25.00;79.60;;;;;;5062351;28;20115;-91
2023/08/07 03:38:15;;;;;;;8.80;5.30;;;25.10;79.50;;;;;;5069948;28;20048;-91
2023/08/07 03:40:41;;;;;;;6.80;5.20;;;25.10;79.20;;;;;;5077682;28;20041;-91
2023/08/07 03:43:07;;;;;;;9.60;5.28;;;25.20;79.20;;;;;;5061395;28;20056;-91
2023/08/07 03:45:33;;;;;;;8.35;5.95;;;25.30;78.50;;;;;;5059116;28;20041;-91
2023/08/07 03:47:59;;;;;;;9.10;5.25;;;25.40;78.10;;;;;;5081987;28;20496;-91
2023/08/07 03:50:27;;;;;;;12.35;5.85;;;25.40;77.90;;;;;;5071981;28;20031;-92
2023/08/07 03:52:53;;;;;;;10.13;5.63;;;25.40;77.80;;;;;;5077242;28;20029;-89
2023/08/07 03:55:19;;;;;;;9.98;5.43;;;25.40;77.80;;;;;;5078576;28;20095;-88
2023/08/07 03:57:45;;;;;;;10.73;5.40;;;25.40;77.50;;;;;;5075802;28;20033;-90
2023/08/07 04:00:11;;;;;;;9.25;5.38;;;25.40;77.30;;;;;;5079261;28;20028;-92
2023/08/07 04:02:38;;;;;;;6.87;5.53;;;25.50;77.20;;;;;;5073708;28;20024;-91
2023/08/07 04:05:04;;;;;;;9.88;5.47;;;25.50;76.70;;;;;;5076776;28;20261;-91
2023/08/07 04:07:30;;;;;;;8.60;5.00;;;25.50;76.70;;;;;;5071200;28;20025;-89
2023/08/07 04:09:56;;;;;;;9.35;4.28;;;25.60;76.50;;;;;;5089556;28;20036;-90
2023/08/07 04:12:22;;;;;;;10.80;5.68;;;25.50;76.40;;;;;;5069649;28;20040;-90
2023/08/07 04:14:48;;;;;;;8.77;5.17;;;25.50;76.50;;;;;;5075088;28;20132;-91
2023/08/07 04:17:15;;;;;;;10.13;5.60;;;25.60;76.50;;;;;;5077558;28;20041;-91
2023/08/07 04:19:41;;;;;;;7.78;5.38;;;25.60;76.30;;;;;;5092597;28;20029;-91
2023/08/07 04:22:07;;;;;;;8.88;5.18;;;25.70;76.00;;;;;;5071954;28;20020;-91
2023/08/07 04:24:33;;;;;;;6.57;5.85;;;25.70;76.10;;;;;;5061429;28;20490;-91
2023/08/07 04:26:59;;;;;;;6.72;5.53;;;25.70;75.80;;;;;;5056858;28;20154;-91
2023/08/07 04:29:25;;;;;;;8.45;5.90;;;25.70;76.40;;;;;;5063456;28;20067;-90
2023/08/07 04:31:52;;;;;;;8.98;5.38;;;25.80;75.80;;;;;;5078196;28;20016;-91
2023/08/07 04:34:18;;;;;;;12.70;5.38;;;25.80;75.50;;;;;;5090393;28;20024;-87
2023/08/07 04:36:44;;;;;;;13.60;5.22;;;25.90;76.00;;;;;;5080029;28;20044;-92
2023/08/07 04:39:13;;;;;;;10.32;5.60;;;25.90;75.30;;;;;;5067232;28;20028;-91
2023/08/07 04:41:40;;;;;;;9.05;5.43;;;26.00;74.90;;;;;;5054936;28;20017;-92
2023/08/07 04:44:13;;;;;;;10.93;5.15;;;26.00;74.70;;;;;;5042063;28;20044;-91
2023/08/07 04:47:03;;;;;;;10.48;6.45;;;26.00;75.20;;;;;;5080913;28;20028;-94
2023/08/07 04:49:38;;;;;;;6.65;5.40;;;26.10;75.10;;;;;;5059796;28;20040;-91
2023/08/07 04:52:04;;;;;;;15.65;5.07;;;26.20;75.10;;;;;;5076619;28;20028;-91
2023/08/07 04:54:33;;;;;;;16.90;7.55;;;26.20;74.50;;;;;;5078958;28;20035;-92
2023/08/07 04:57:12;;;;;;;10.30;5.55;;;26.40;74.30;;;;;;5083577;28;20035;-90
2023/08/07 04:59:41;;;;;;;29.00;7.35;;;27.10;72.80;;;;;;5089131;28;20385;-92
2023/08/07 05:02:08;;;;;;;8.90;5.30;;;28.00;71.20;;;;;;5055765;28;20039;-92
2023/08/07 05:04:34;;;;;;;13.00;5.25;;;28.90;67.60;;;;;;5055206;28;20021;-91
2023/08/07 05:07:00;;;;;;;10.07;4.55;;;29.80;65.20;;;;;;5070495;28;20027;-91
2023/08/07 05:09:31;;;;;;;8.50;3.83;;;31.20;61.70;;;;;;5058999;28;20063;-91
2023/08/07 05:11:57;;;;;;;7.00;4.50;;;31.30;60.60;;;;;;5072100;28;20055;-91
2023/08/07 05:14:28;;;;;;;7.57;3.97;;;31.80;59.00;;;;;;5080825;28;20048;-92
2023/08/07 05:16:54;;;;;;;12.20;4.10;;;32.10;57.60;;;;;;5048580;28;20030;-90
2023/08/07 05:19:22;;;;;;;9.70;4.27;;;32.50;56.90;;;;;;5030797;28;20106;-92
2023/08/07 05:21:50;;;;;;;13.75;4.47;;;33.20;55.90;;;;;;5048228;28;20042;-91
2023/08/07 05:24:17;;;;;;;9.18;4.32;;;33.90;54.30;;;;;;5039871;28;20026;-91
2023/08/07 05:26:44;;;;;;;6.97;3.83;;;34.40;53.20;;;;;;5023401;28;20026;-88
2023/08/07 05:29:10;;;;;;;7.22;4.05;;;35.00;52.20;;;;;;5013538;28;20097;-91
2023/08/07 05:31:36;;;;;;;7.68;4.18;;;35.30;51.30;;;;;;5025478;28;20022;-91
2023/08/07 05:34:02;;;;;;;11.60;3.70;;;35.50;50.10;;;;;;5033265;28;20093;-90
2023/08/07 05:36:29;;;;;;;10.30;7.57;;;35.70;49.50;;;;;;4993705;28;20019;-90
2023/08/07 05:38:56;;;;;;;7.75;4.07;;;36.10;49.40;;;;;;4971814;28;20031;-90
2023/08/07 05:41:21;;;;;;;7.07;4.18;;;36.50;48.40;;;;;;4989944;28;20031;-92
2023/08/07 05:43:48;;;;;;;16.08;5.10;;;;;;;;;;4996351;28;20065;-92
2023/08/07 05:46:15;;;;;;;9.45;4.32;;;;;;;;;;4984395;28;20019;-90
2023/08/07 05:48:41;;;;;;;5.78;4.00;;;36.50;48.30;;;;;;5004830;28;20121;-90
2023/08/07 05:51:07;;;;;;;13.73;4.68;;;37.70;47.20;;;;;;5007132;28;20049;-92
2023/08/07 05:53:37;;;;;;;14.05;4.85;;;38.00;46.50;;;;;;5013544;28;20033;-91
2023/08/07 05:56:03;;;;;;;14.25;4.70;;;38.40;45.80;;;;;;4973911;28;20027;-92
2023/08/07 05:58:30;;;;;;;14.30;4.20;;;39.00;44.80;;;;;;4999682;28;20034;-89
2023/08/07 06:00:58;;;;;;;8.07;3.75;;;39.90;44.10;;;;;;4994892;28;20026;-92
2023/08/07 06:03:24;;;;;;;10.88;4.25;;;40.50;42.90;;;;;;4997412;28;20021;-92
2023/08/07 06:05:50;;;;;;;;;;;40.70;42.30;;;;;;5014917;28;20172;-91
2023/08/07 06:08:16;;;;;;;;;;;40.30;42.70;;;;;;5022668;28;19910;-92
2023/08/07 06:10:41;;;;;;;;;;;39.60;43.50;;;;;;5034869;28;20373;-91
2023/08/07 06:13:10;;;;;;;;;;;39.60;44.60;;;;;;5038926;28;19943;-92
2023/08/07 06:15:36;;;;;;;12.77;4.38;;;40.30;44.40;;;;;;5075256;28;19931;-91
2023/08/07 06:18:01;;;;;;;11.05;4.45;;;41.10;41.90;;;;;;5070385;28;20017;-89
2023/08/07 06:20:27;;;;;;;11.05;4.47;;;41.80;40.90;;;;;;5060785;28;20029;-91
2023/08/07 06:22:53;;;;;;;15.88;4.03;;;42.50;40.30;;;;;;5082843;28;20033;-90
2023/08/07 06:25:19;;;;;;;10.32;3.75;;;42.90;39.10;;;;;;5080652;28;20085;-92
2023/08/07 06:27:45;;;;;;;11.75;4.13;;;42.80;39.30;;;;;;5081141;28;20036;-90
2023/08/07 06:30:13;;;;;;;12.90;3.85;;;43.10;38.80;;;;;;5082178;28;20029;-91
2023/08/07 06:32:39;;;;;;;11.98;3.60;;;43.50;38.20;;;;;;5079299;28;20029;-92
2023/08/07 06:35:05;;;;;;;;;;;43.40;37.80;;;;;;5067050;28;20070;-87
2023/08/07 06:37:31;;;;;;;11.90;3.30;;;43.50;38.50;;;;;;5084423;28;19951;-91
2023/08/07 06:39:58;;;;;;;13.10;3.90;;;43.00;37.60;;;;;;5056502;28;20036;-89
2023/08/07 06:42:24;;;;;;;16.95;4.32;;;43.10;37.90;;;;;;5055687;28;20025;-90
2023/08/07 06:44:49;;;;;;;;;;;43.50;37.60;;;;;;5084137;28;20017;-91
2023/08/07 06:47:15;;;;;;;7.80;3.00;;;43.60;38.20;;;;;;5053457;28;20030;-84
2023/08/07 06:49:41;;;;;;;;;;;43.60;37.00;;;;;;5073344;28;20389;-85
2023/08/07 06:52:07;;;;;;;22.10;4.15;;;43.60;37.50;;;;;;5078319;28;19975;-83
2023/08/07 06:54:32;;;;;;;;;;;43.40;37.30;;;;;;5079918;28;20060;-84
2023/08/07 06:56:58;;;;;;;16.45;4.45;;;43.40;37.60;;;;;;5075668;28;19904;-85
2023/08/07 06:59:24;;;;;;;;;;;43.60;36.70;;;;;;5075511;28;20499;-83
2023/08/07 07:01:51;;;;;;;25.58;4.63;;;43.70;36.90;;;;;;5061618;28;19914;-82
2023/08/07 07:04:17;;;;;;;10.98;3.15;;;43.40;36.40;;;;;;5072876;28;20561;-82
2023/08/07 07:06:43;;;;;;;14.68;3.60;;;43.40;35.80;;;;;;5066768;28;20021;-82
2023/08/07 07:09:09;;;;;;;16.33;3.50;;;43.20;36.00;;;;;;5070727;28;20020;-83
2023/08/07 07:11:36;;;;;;;8.18;2.75;;;43.50;36.00;;;;;;5046177;28;20055;-83
2023/08/07 07:14:01;;;;;;;18.05;3.58;;;43.90;35.70;;;;;;5074726;28;20029;-83
2023/08/07 07:16:28;;;;;;;18.83;4.30;;;44.30;35.50;;;;;;5075640;28;20032;-85
2023/08/07 07:18:56;;;;;;;19.15;3.78;;;44.80;35.20;;;;;;5060737;28;20021;-83
2023/08/07 07:21:21;;;;;;;14.85;3.05;;;44.80;34.90;;;;;;5073274;28;20009;-83
2023/08/07 07:23:47;;;;;;;7.70;3.30;;;45.20;35.50;;;;;;5048759;28;20203;-83
2023/08/07 07:26:13;;;;;;;17.52;3.38;;;45.50;34.40;;;;;;5072689;28;20043;-85
2023/08/07 07:28:39;;;;;;;12.93;2.83;;;45.60;34.30;;;;;;5052928;28;20031;-84
2023/08/07 07:31:05;;;;;;;10.90;2.40;;;45.70;34.10;;;;;;5076556;28;20048;-86
2023/08/07 07:33:31;;;;;;;12.70;3.35;;;46.00;34.10;;;;;;5074468;28;20389;-85
2023/08/07 07:35:57;;;;;;;12.27;2.85;;;46.10;33.90;;;;;;5052968;28;20025;-86
2023/08/07 07:38:23;;;;;;;8.55;4.15;;;46.30;33.60;;;;;;5065382;28;20351;-84
2023/08/07 07:40:49;;;;;;;17.80;3.88;;;46.80;33.40;;;;;;5052486;28;20055;-85
2023/08/07 07:43:16;;;;;;;22.67;2.90;;;47.00;32.90;;;;;;5076214;28;20055;-84
2023/08/07 07:45:47;;;;;;;5.45;2.75;;;46.10;33.60;;;;;;5061226;28;20056;-87
2023/08/07 07:48:16;;;;;;;15.07;2.90;;;46.10;33.50;;;;;;5051258;28;20028;-86
2023/08/07 07:50:53;;;;;;;11.82;2.30;;;46.20;33.60;;;;;;5070498;28;20040;-84
2023/08/07 07:53:21;;;;;;;9.57;2.58;;;46.50;33.30;;;;;;5079373;28;20390;-86
2023/08/07 07:55:48;;;;;;;6.85;2.42;;;46.80;33.00;;;;;;5075081;28;20047;-87
2023/08/07 07:58:14;;;;;;;17.52;3.10;;;47.10;33.20;;;;;;5075627;28;20035;-86
2023/08/07 08:00:40;;;;;;;14.55;2.67;;;47.40;32.60;;;;;;5083178;28;20020;-84
2023/08/07 08:03:11;;;;;;;10.43;2.92;;;47.80;32.40;;;;;;5089173;28;20020;-84
2023/08/07 08:05:38;;;;;;;11.95;2.17;;;47.60;32.10;;;;;;5074526;28;20021;-83
2023/08/07 08:08:05;;;;;;;11.63;2.75;;;47.50;32.40;;;;;;5072904;28;20347;-87
2023/08/07 08:10:34;;;;;;;12.93;3.60;;;47.40;32.00;;;;;;5048535;28;20086;-84
2023/08/07 08:13:00;;;;;;;14.90;2.58;;;47.50;32.30;;;;;;5078258;28;20505;-86
2023/08/07 08:15:50;;;;;;;;;;;;;;;;;;;;;
2023/08/07 08:18:21;;;;;;;16.33;2.97;;;47.00;32.40;;;;;;5069435;28;20105;-88
2023/08/07 08:20:47;;;;;;;7.57;2.22;;;47.40;32.50;;;;;;5080513;28;20028;-87
2023/08/07 08:23:15;;;;;;;13.57;2.55;;;47.80;32.30;;;;;;5064008;28;20024;-86
2023/08/07 08:25:42;;;;;;;11.02;2.58;;;;;;;;;;5089148;28;20012;-85
2023/08/07 08:28:08;;;;;;;13.18;3.20;;;;;;;;;;5065778;28;20048;-89
2023/08/07 08:30:34;;;;;;;7.20;2.17;;;48.10;32.10;;;;;;5069951;28;20029;-84
2023/08/07 08:33:05;;;;;;;14.70;3.00;;;48.20;32.30;;;;;;5066617;28;20047;-81
2023/08/07 08:35:31;;;;;;;18.95;4.03;;;48.20;31.60;;;;;;5072337;28;20037;-84
2023/08/07 08:38:03;;;;;;;9.70;3.05;;;48.10;31.70;;;;;;5080766;28;20016;-83
2023/08/07 08:40:30;;;;;;;17.23;3.25;;;48.10;31.60;;;;;;5057880;28;20039;-85
2023/08/07 08:43:24;;;;;;;;;;;;;;;;;;;;;
2023/08/07 08:45:51;;;;;;;10.13;2.85;;;48.00;31.60;;;;;;5070515;28;20035;-82
2023/08/07 08:48:23;;;;;;;7.05;3.00;;;48.00;31.80;;;;;;5064388;28;20035;-84
2023/08/07 08:51:11;;;;;;;9.50;3.13;;;48.30;31.70;;;;;;5087165;28;20081;-83
2023/08/07 08:53:38;;;;;;;15.63;3.13;;;48.40;31.90;;;;;;5077159;28;20033;-83
2023/08/07 08:56:06;;;;;;;6.03;2.78;;;48.70;31.20;;;;;;5079465;28;20119;-83
2023/08/07 08:58:34;;;;;;;11.10;2.92;;;49.10;31.10;;;;;;5079097;28;20036;-83
2023/08/07 09:01:00;;;;;;;24.98;4.88;;;49.30;30.90;;;;;;5067231;28;20021;-83
2023/08/07 09:03:29;;;;;;;12.27;2.20;;;48.60;30.70;;;;;;5072433;28;20555;-83
2023/08/07 09:05:59;;;;;;;12.38;2.95;;;48.30;30.90;;;;;;5075533;28;20429;-84
2023/08/07 09:08:29;;;;;;;24.48;6.22;;;48.40;31.10;;;;;;5075629;28;20024;-83
2023/08/07 09:11:06;;;;;;;;;;;;;;;;;;;;;
2023/08/07 09:13:36;;;;;;;20.48;3.30;;;48.30;31.70;;;;;;5078640;28;20032;-84
2023/08/07 09:16:16;;;;;;;11.30;3.17;;;48.10;31.00;;;;;;5054093;28;20033;-84
2023/08/07 09:18:45;;;;;;;14.50;3.67;;;48.00;31.10;;;;;;5074308;28;20056;-83
2023/08/07 09:21:12;;;;;;;13.63;2.90;;;47.80;31.30;;;;;;5078392;28;20485;-86
2023/08/07 09:23:38;;;;;;;13.07;4.15;;;47.70;31.10;;;;;;5058357;28;20497;-87
2023/08/07 09:26:05;;;;;;;8.55;3.13;;;48.00;31.10;;;;;;5058936;28;20280;-86
2023/08/07 09:28:32;;;;;;;7.50;2.55;;;48.30;30.90;;;;;;5066817;28;20024;-84
2023/08/07 09:31:01;;;;;;;15.85;3.08;;;48.30;30.70;;;;;;5057516;28;20107;-86
2023/08/07 09:33:29;;;;;;;8.02;2.88;;;48.20;30.90;;;;;;5055277;28;20041;-85
2023/08/07 09:35:59;;;;;;;17.20;3.83;;;48.40;31.10;;;;;;5072767;28;20032;-84
2023/08/07 09:38:31;;;;;;;12.43;3.63;;;48.80;30.80;;;;;;5076838;28;20017;-85
2023/08/07 09:41:02;;;;;;;6.75;2.00;;;48.80;30.90;;;;;;5082051;28;20099;-83
2023/08/07 09:43:29;;;;;;;8.57;2.20;;;48.60;30.40;;;;;;5076817;28;20028;-88
2023/08/07 09:46:04;;;;;;;5.82;2.28;;;46.80;31.30;;;;;;5056207;28;20048;-86
2023/08/07 09:48:33;;;;;;;9.95;2.45;;;46.20;31.40;;;;;;5084303;28;20013;-86
2023/08/07 09:51:02;;;;;;;8.52;2.35;;;45.70;32.50;;;;;;5065536;28;20028;-84
2023/08/07 09:53:46;;;;;;;7.97;2.50;;;45.60;32.70;;;;;;5083896;28;20032;-84
2023/08/07 09:56:13;;;;;;;11.60;2.60;;;45.80;32.30;;;;;;5056251;28;20082;-87
2023/08/07 09:58:47;;;;;;;14.75;2.97;;;46.00;32.60;;;;;;5052931;28;20042;-85
2023/08/07 10:01:16;;;;;;;9.57;2.55;;;45.80;32.50;;;;;;5078128;28;20016;-87
2023/08/07 10:03:42;;;;;;;16.20;2.83;;;45.90;32.80;;;;;;5078932;28;20020;-87
2023/08/07 10:06:09;;;;;;;16.15;2.70;;;46.60;32.70;;;;;;5053207;28;20083;-85
2023/08/07 10:08:37;;;;;;;10.50;2.42;;;47.00;31.90;;;;;;5072359;28;20020;-85
2023/08/07 10:11:04;;;;;;;12.45;2.90;;;47.00;31.70;;;;;;5055736;28;20088;-87
2023/08/07 10:13:31;;;;;;;9.93;2.60;;;47.10;32.30;;;;;;5060962;28;20052;-85
2023/08/07 10:15:58;;;;;;;10.27;2.55;;;47.00;31.60;;;;;;5063486;28;20454;-86
2023/08/07 10:18:24;;;;;;;10.77;2.85;;;47.20;31.70;;;;;;5069911;28;20036;-89
2023/08/07 10:20:50;;;;;;;5.55;2.28;;;47.30;31.40;;;;;;5082937;28;20039;-87
2023/08/07 10:23:17;;;;;;;5.93;2.33;;;47.40;31.40;;;;;;5065015;28;20021;-91
2023/08/07 10:25:46;;;;;;;6.93;3.30;;;47.40;31.20;;;;;;5068427;28;20024;-89
2023/08/07 10:28:16;;;;;;;9.85;2.50;;;47.10;31.50;;;;;;5071790;28;20025;-90
2023/08/07 10:30:43;;;;;;;9.50;2.60;;;46.70;31.60;;;;;;5065248;28;20052;-90
2023/08/07 10:33:14;;;;;;;10.93;5.93;;;46.50;31.80;;;;;;5068713;28;20079;-89
2023/08/07 10:35:47;;;;;;;9.18;3.15;;;;;;;;;;5064883;28;20033;-88
2023/08/07 10:38:13;;;;;;;3.83;2.30;;;43.40;33.50;;;;;;5069183;28;20027;-87
2023/08/07 10:41:01;;;;;;;10.48;3.38;;;41.40;35.00;;;;;;5063599;28;20029;-87
2023/08/07 10:43:28;;;;;;;10.23;3.38;;;39.70;36.70;;;;;;5086566;28;20033;-86
2023/08/07 10:46:08;;;;;;;12.20;2.60;;;38.30;38.70;;;;;;5065221;28;20024;-89
2023/08/07 10:48:47;;;;;;;14.63;3.90;;;37.40;39.90;;;;;;5064595;28;20024;-89
2023/08/07 10:51:17;;;;;;;7.18;2.70;;;36.00;39.90;;;;;;5054638;28;20083;-88
2023/08/07 10:53:48;;;;;;;5.53;2.45;;;35.80;42.00;;;;;;5046361;28;20090;-86
2023/08/07 10:56:32;;;;;;;9.52;3.08;;;35.20;42.10;;;;;;5053003;28;20028;-83
2023/08/07 10:58:58;;;;;;;6.95;2.83;;;34.40;43.80;;;;;;5082318;28;20077;-84
2023/08/07 11:01:27;;;;;;;16.63;3.37;;;33.90;44.90;;;;;;5059955;28;20021;-84
2023/08/07 11:03:54;;;;;;;10.05;3.22;;;;;;;;;;5090395;28;20021;-84
2023/08/07 11:06:26;;;;;;;9.07;3.63;;;33.60;44.70;;;;;;5081854;28;20032;-86
2023/08/07 11:08:52;;;;;;;9.93;4.55;;;33.00;45.80;;;;;;5049468;28;20032;-85
2023/08/07 11:11:21;;;;;;;15.98;4.15;;;32.80;46.90;;;;;;5072351;28;20092;-85
2023/08/07 11:13:47;;;;;;;15.60;4.60;;;32.70;46.60;;;;;;5077729;28;20044;-84
2023/08/07 11:16:14;;;;;;;7.23;3.80;;;32.60;47.20;;;;;;5081872;28;20300;-85
2023/08/07 11:18:42;;;;;;;9.05;3.13;;;32.50;47.20;;;;;;5062686;28;20481;-84
2023/08/07 11:21:12;;;;;;;8.95;3.42;;;;;;;;;;5076464;28;20024;-85
2023/08/07 11:23:39;;;;;;;10.93;3.58;;;;;;;;;;5076015;28;20024;-84
2023/08/07 11:26:06;;;;;;;11.23;4.35;;;;;;;;;;5054307;28;20021;-84
2023/08/07 11:28:33;;;;;;;19.13;4.68;;;;;;;;;;5055114;28;20039;-86
2023/08/07 11:30:59;;;;;;;12.82;3.53;;;;;;;;;;5056232;28;20526;-88
2023/08/07 11:33:26;;;;;;;18.92;3.97;;;;;;;;;;5062007;28;20452;-84
2023/08/07 11:35:52;;;;;;;14.07;3.78;;;;;;;;;;5047831;28;20021;-86
2023/08/07 11:38:37;;;;;;;49.50;7.13;;;;;;;;;;5057563;28;20097;-87
2023/08/07 11:41:05;;;;;;;13.93;4.13;;;;;;;;;;5059455;28;20108;-86
2023/08/07 11:43:31;;;;;;;32.30;5.80;;;;;;;;;;5083032;28;20044;-84
2023/08/07 11:45:58;;;;;;;13.55;3.75;;;;;;;;;;5078964;28;20082;-85
2023/08/07 11:48:25;;;;;;;;;;;;;;;;;;5075587;28;20025;-85
2023/08/07 11:50:51;;;;;;;;;;;;;;;;;;5051419;28;19912;-83
2023/08/07 11:53:17;;;;;;;7.03;3.90;;;;;;;;;;5072800;28;19934;-82
2023/08/07 11:55:54;;;;;;;10.60;4.00;;;;;;;;;;5046520;28;20490;-85
2023/08/07 11:58:20;;;;;;;10.40;4.80;;;;;;;;;;5054588;28;20648;-84
2023/08/07 12:00:47;;;;;;;17.30;5.93;;;;;;;;;;5072249;28;20020;-83
2023/08/07 12:03:26;;;;;;;7.95;4.07;;;;;;;;;;5072266;28;20546;-83
2023/08/07 12:05:53;;;;;;;14.90;5.43;;;;;;;;;;5059397;28;20021;-83
2023/08/07 12:08:19;;;;;;;;;;;;;;;;;;5077153;28;20138;-82
2023/08/07 12:10:49;;;;;;;11.60;5.47;;;;;;;;;;5065629;28;19928;-82
2023/08/07 12:13:18;;;;;;;14.68;4.10;;;;;;;;;;5078594;28;20490;-86
2023/08/07 12:15:45;;;;;;;9.25;4.03;;;;;;;;;;5054392;28;20123;-84
2023/08/07 12:18:12;;;;;;;12.57;3.97;;;;;;;;;;5105490;28;20017;-87
2023/08/07 12:20:39;;;;;;;9.88;3.53;;;;;;;;;;5080956;28;20029;-92
2023/08/07 12:23:11;;;;;;;45.92;8.90;;;;;;;;;;5068938;28;20379;-89
2023/08/07 12:25:37;;;;;;;20.77;4.90;;;32.40;47.50;;;;;;5051482;28;20037;-90
2023/08/07 12:28:10;;;;;;;7.85;4.53;;;31.80;50.30;;;;;;5059299;28;20123;-90
2023/08/07 12:30:42;;;;;;;9.93;3.88;;;31.80;50.70;;;;;;5067335;28;20486;-90
2023/08/07 12:33:11;;;;;;;9.02;3.88;;;31.70;51.00;;;;;;5068955;28;20059;-86
2023/08/07 12:35:37;;;;;;;10.15;3.85;;;31.70;50.90;;;;;;5062562;28;20037;-87
2023/08/07 12:38:03;;;;;;;17.48;4.72;;;;;;;;;;5075515;28;20024;-90
2023/08/07 12:40:36;;;;;;;13.77;4.32;;;;;;;;;;5084415;28;20038;-87
2023/08/07 12:43:03;;;;;;;18.38;6.38;;;31.80;51.30;;;;;;5078991;28;20020;-90
2023/08/07 12:45:32;;;;;;;11.15;4.38;;;31.80;50.90;;;;;;5062820;28;20025;-88
2023/08/07 12:48:02;;;;;;;14.00;5.05;;;31.80;50.70;;;;;;5063889;28;20028;-87
2023/08/07 12:50:31;;;;;;;14.68;5.32;;;31.80;50.90;;;;;;5076586;28;20020;-85
2023/08/07 12:52:58;;;;;;;9.45;3.92;;;31.80;50.90;;;;;;5076722;28;20032;-86
2023/08/07 12:55:32;;;;;;;16.33;5.88;;;31.70;50.30;;;;;;5055508;28;20024;-85
2023/08/07 12:57:58;;;;;;;9.73;4.75;;;31.70;50.80;;;;;;5076907;28;20108;-89
2023/08/07 13:00:25;;;;;;;18.43;5.57;;;31.60;50.80;;;;;;5061348;28;20084;-86
2023/08/07 13:02:51;;;;;;;13.55;3.88;;;31.60;50.90;;;;;;5077507;28;20031;-89
2023/08/07 13:05:18;;;;;;;8.88;3.83;;;31.60;51.00;;;;;;5058969;28;20024;-82